Terminal Aerodrome Forecast
Issued by NWS

Home | Current Version | Previous Version | Text Only | Print | Product List | Glossary Off
Versions: 1 2 3 4 5 6 7 8 9 10 11 12 13 14 15 16 17 18 19

000
FTUS43 KABR 241700
TAFATY
TAF
KATY 241723Z 2418/2518 28006KT P6SM OVC200
     FM242100 28008KT 4SM -RA BR OVC015
     FM250400 35014KT 2SM -SN BR OVC007
     FM251400 36009KT P6SM OVC015=

USA.gov is the U.S. government's official web portal to all federal, state and local government web resources and services.